Innsbruck, Austria
Current Conditions -  °F | °C
As of 6:20 PM on Thursday 23 Oct 2014 (Local Time) from LOWI Reporting Station
Rain Showers Rain Showers  
Wind Chill: 36°   Ceiling: 6500
Heat Index: 39°   Visibility: 6mi
Dew Point: 37°   Wind: 5mph
Humidity: 93%   Direction: 140°SE
Pressure: 30.21"   Gusts: NA
Location:  47.28°N, 11.41°E
Report Text: LOWI 231620Z 14004KT 110V200 9999 -SHRA FEW005 SCT040 BKN065 04/03 Q1023 NOSIG
Loading
Personal Weather Stations






























Interactive Weather Map
Tropical Storm Tracking
New forecast layout! Learn more

10-Day Weather Forecast

Advertisements
Track Severe Weather on mobile